Time;durP1;ratioP1;P1;durP2;ratioP2;P2;SDS_P1;SDS_P2;PMS_P1;PMS_P2;Temp;Humidity;BMP_temperature;BMP_pressure;BME280_temperature;BME280_humidity;BME280_pressure;Samples;Min_cycle;Max_cycle;Signal;HPM_P1;HPM_P2
2021/12/13 00:00:58;;;;;;;474.00;33.00;;;;;;;;;;2062834;28;20046;-77
2021/12/13 00:02:23;;;;;;;237.20;21.77;;;;;;;;;;2063960;28;20034;-77
2021/12/13 00:04:01;;;;;;;257.58;21.52;;;;;;;;;;2069762;28;20483;-76
2021/12/13 00:05:23;;;;;;;167.73;18.00;;;;;;;;;;2065257;28;20034;-76
2021/12/13 00:06:50;;;;;;;206.75;20.55;;;;;;;;;;2064521;28;20015;-76
2021/12/13 00:08:11;;;;;;;208.57;19.77;;;;;;;;;;2061195;28;20113;-78
2021/12/13 00:09:31;;;;;;;311.00;26.40;;;;;;;;;;2061386;28;20473;-76
2021/12/13 00:10:52;;;;;;;132.73;14.98;;;;;;;;;;2060540;28;20026;-76
2021/12/13 00:12:11;;;;;;;236.75;21.02;;;;;;;;;;2064826;28;20059;-76
2021/12/13 00:13:41;;;;;;;459.02;32.35;;;;;;;;;;2064398;28;20030;-77
2021/12/13 00:15:03;;;;;;;166.32;18.30;;;;;;;;;;2072421;28;20767;-77
2021/12/13 00:16:28;;;;;;;280.35;21.98;;;;;;;;;;2066896;28;20133;-77
2021/12/13 00:17:50;;;;;;;267.42;23.63;;;;;;;;;;2069608;28;20034;-76
2021/12/13 00:19:11;;;;;;;183.70;17.98;;;;;;;;;;2063775;28;20046;-76
2021/12/13 00:20:37;;;;;;;289.60;24.42;;;;;;;;;;2065193;28;20042;-76
2021/12/13 00:21:57;;;;;;;215.05;20.27;;;;;;;;;;2064748;28;20037;-77
2021/12/13 00:23:21;;;;;;;424.05;32.17;;;;;;;;;;2069265;28;20026;-76
2021/12/13 00:24:41;;;;;;;263.25;23.85;;;;;;;;;;2071789;28;20041;-76
2021/12/13 00:26:03;;;;;;;336.60;26.27;;;;;;;;;;2072108;28;20692;-77
2021/12/13 00:27:25;;;;;;;201.95;20.55;;;;;;;;;;2073025;28;20038;-77
2021/12/13 00:28:44;;;;;;;163.38;16.85;;;;;;;;;;2063620;28;20035;-77
2021/12/13 00:30:22;;;;;;;283.02;25.10;;;;;;;;;;2060272;28;20030;-78
2021/12/13 00:31:50;;;;;;;273.10;23.25;;;;;;;;;;2071198;28;20034;-78
2021/12/13 00:33:08;;;;;;;184.18;19.48;;;;;;;;;;2066978;28;20066;-77
2021/12/13 00:34:30;;;;;;;109.72;14.57;;;;;;;;;;2064719;28;20026;-76
2021/12/13 00:35:51;;;;;;;160.57;15.30;;;;;;;;;;2068271;28;20037;-77
2021/12/13 00:37:14;;;;;;;172.38;17.77;;;;;;;;;;2063751;28;20026;-78
2021/12/13 00:38:37;;;;;;;112.82;14.52;;;;;;;;;;2064605;28;20110;-77
2021/12/13 00:40:01;;;;;;;88.80;14.35;;;;;;;;;;2064788;28;20034;-78
2021/12/13 00:41:22;;;;;;;112.80;14.77;;;;;;;;;;2069271;28;20026;-77
2021/12/13 00:42:59;;;;;;;99.72;15.15;;;;;;;;;;2067050;28;20401;-77
2021/12/13 00:44:21;;;;;;;135.30;15.35;;;;;;;;;;2072304;28;20037;-77
2021/12/13 00:45:52;;;;;;;160.02;17.17;;;;;;;;;;2064741;28;20522;-77
2021/12/13 00:47:24;;;;;;;120.93;15.60;;;;;;;;;;2063839;28;20057;-77
2021/12/13 00:48:46;;;;;;;134.15;15.32;;;;;;;;;;2063607;28;20034;-77
2021/12/13 00:50:07;;;;;;;115.55;14.35;;;;;;;;;;2063840;28;20038;-77
2021/12/13 00:51:29;;;;;;;170.05;15.20;;;;;;;;;;2069738;28;20417;-77
2021/12/13 00:52:49;;;;;;;191.38;16.45;;;;;;;;;;2071087;28;20041;-77
2021/12/13 00:54:17;;;;;;;145.10;15.45;;;;;;;;;;2063554;28;20079;-77
2021/12/13 00:55:36;;;;;;;158.38;16.98;;;;;;;;;;2070250;28;20030;-76
2021/12/13 00:56:58;;;;;;;155.05;17.55;;;;;;;;;;2068068;28;20069;-76
2021/12/13 00:58:22;;;;;;;228.10;20.73;;;;;;;;;;2063664;28;20034;-76
2021/12/13 00:59:44;;;;;;;257.70;22.98;;;;;;;;;;2068526;28;20452;-77
2021/12/13 01:01:08;;;;;;;144.18;15.98;;;;;;;;;;2067422;28;20479;-76
2021/12/13 01:02:30;;;;;;;207.45;18.40;;;;;;;;;;2066585;28;20038;-76
2021/12/13 01:03:49;;;;;;;179.63;17.05;;;;;;;;;;2071009;28;20053;-76
2021/12/13 01:05:11;;;;;;;140.93;13.75;;;;;;;;;;2067792;28;20030;-75
2021/12/13 01:06:49;;;;;;;196.95;18.42;;;;;;;;;;2063777;28;20022;-76
2021/12/13 01:08:10;;;;;;;245.60;21.33;;;;;;;;;;2071057;28;20030;-76
2021/12/13 01:09:48;;;;;;;181.70;18.77;;;;;;;;;;2062403;28;20022;-77
2021/12/13 01:11:07;;;;;;;77.72;12.50;;;;;;;;;;2063432;28;20627;-77
2021/12/13 01:12:26;;;;;;;115.07;12.30;;;;;;;;;;2064635;28;20034;-76
2021/12/13 01:13:58;;;;;;;88.25;11.52;;;;;;;;;;2064910;28;20477;-76
2021/12/13 01:15:29;;;;;;;157.90;15.43;;;;;;;;;;2070871;28;20538;-76
2021/12/13 01:17:13;;;;;;;81.55;10.45;;;;;;;;;;2066523;28;20046;-76
2021/12/13 01:19:02;;;;;;;117.78;12.07;;;;;;;;;;2072424;28;20116;-76
2021/12/13 01:20:28;;;;;;;129.02;13.98;;;;;;;;;;2062482;28;20030;-76
2021/12/13 01:24:07;;;;;;;87.60;11.32;;;;;;;;;;2064182;28;20387;-76
2021/12/13 01:25:46;;;;;;;99.03;12.98;;;;;;;;;;2051791;28;20043;-76
2021/12/13 01:27:05;;;;;;;103.78;11.95;;;;;;;;;;2071022;28;20030;-76
2021/12/13 01:28:32;;;;;;;119.47;12.52;;;;;;;;;;2067679;28;20109;-76
2021/12/13 01:29:51;;;;;;;130.38;13.20;;;;;;;;;;2064369;28;20038;-76
2021/12/13 01:31:15;;;;;;;92.05;12.40;;;;;;;;;;2064034;28;20050;-77
2021/12/13 01:32:36;;;;;;;71.65;10.32;;;;;;;;;;2070148;28;20491;-76
2021/12/13 01:33:56;;;;;;;77.65;10.68;;;;;;;;;;2064541;28;20026;-76
2021/12/13 01:35:17;;;;;;;99.70;12.80;;;;;;;;;;2060994;28;20026;-76
2021/12/13 01:36:44;;;;;;;87.55;11.15;;;;;;;;;;2067691;28;20033;-78
2021/12/13 01:38:07;;;;;;;128.23;13.43;;;;;;;;;;2063793;28;20042;-76
2021/12/13 01:39:28;;;;;;;112.82;10.93;;;;;;;;;;2063420;28;20042;-76
2021/12/13 01:40:52;;;;;;;114.75;11.77;;;;;;;;;;2063880;28;20026;-76
2021/12/13 01:42:13;;;;;;;140.00;15.95;;;;;;;;;;2062787;28;20600;-76
2021/12/13 01:43:32;;;;;;;119.00;13.40;;;;;;;;;;2068171;28;20069;-76
2021/12/13 01:44:52;;;;;;;125.35;14.00;;;;;;;;;;2066060;28;20706;-77
2021/12/13 01:46:11;;;;;;;131.85;13.10;;;;;;;;;;2063658;28;20030;-75
2021/12/13 01:47:37;;;;;;;155.85;15.23;;;;;;;;;;2059846;28;20034;-76
2021/12/13 01:48:57;;;;;;;161.18;16.20;;;;;;;;;;2067865;28;20323;-76
2021/12/13 01:50:16;;;;;;;255.05;21.08;;;;;;;;;;2062614;28;20116;-77
2021/12/13 01:51:35;;;;;;;109.88;12.48;;;;;;;;;;2069226;28;20104;-76
2021/12/13 01:52:55;;;;;;;139.50;15.20;;;;;;;;;;2063475;28;20034;-77
2021/12/13 01:54:14;;;;;;;88.82;12.68;;;;;;;;;;2060544;28;20069;-76
2021/12/13 01:55:36;;;;;;;70.72;12.65;;;;;;;;;;2063677;28;20430;-76
2021/12/13 01:57:10;;;;;;;85.82;13.20;;;;;;;;;;2063829;28;20030;-76
2021/12/13 02:00:07;;;;;;;61.08;11.18;;;;;;;;;;2065620;28;19906;-77
2021/12/13 02:01:27;;;;;;;140.52;14.95;;;;;;;;;;2064745;28;20475;-75
2021/12/13 02:02:47;;;;;;;79.32;13.30;;;;;;;;;;2064565;28;20035;-76
2021/12/13 02:04:07;;;;;;;62.80;11.82;;;;;;;;;;2063662;28;20026;-76
2021/12/13 02:05:30;;;;;;;89.85;12.07;;;;;;;;;;2062760;28;20438;-77
2021/12/13 02:06:51;;;;;;;75.03;12.32;;;;;;;;;;2064345;28;21004;-76
2021/12/13 02:08:11;;;;;;;67.80;13.40;;;;;;;;;;2069392;28;20113;-76
2021/12/13 02:09:41;;;;;;;105.35;13.82;;;;;;;;;;2065637;28;20121;-76
2021/12/13 02:11:00;;;;;;;100.57;13.02;;;;;;;;;;2065031;28;20457;-76
2021/12/13 02:12:19;;;;;;;98.05;12.35;;;;;;;;;;2072209;28;20157;-76
2021/12/13 02:13:48;;;;;;;77.10;11.40;;;;;;;;;;2063714;28;20031;-76
2021/12/13 02:17:08;;;;;;;57.78;10.48;;;;;;;;;;2063777;28;20505;-76
2021/12/13 02:18:29;;;;;;;96.10;11.00;;;;;;;;;;2071618;28;20046;-76
2021/12/13 02:20:00;;;;;;;77.57;10.35;;;;;;;;;;2062446;28;20442;-76
2021/12/13 02:21:28;;;;;;;107.43;10.93;;;;;;;;;;2069771;28;20053;-76
2021/12/13 02:22:49;;;;;;;122.20;12.10;;;;;;;;;;2063347;28;20095;-76
2021/12/13 02:24:10;;;;;;;88.78;10.90;;;;;;;;;;2061586;28;20117;-75
2021/12/13 02:25:29;;;;;;;92.18;11.95;;;;;;;;;;2061175;28;20043;-76
2021/12/13 02:26:48;;;;;;;70.70;10.93;;;;;;;;;;2069638;28;20034;-76
2021/12/13 02:28:09;;;;;;;96.70;12.68;;;;;;;;;;2068842;28;20034;-76
2021/12/13 02:29:36;;;;;;;162.38;14.65;;;;;;;;;;2073292;28;20470;-76
2021/12/13 02:30:55;;;;;;;163.32;15.63;;;;;;;;;;2062763;28;20030;-75
2021/12/13 02:32:13;;;;;;;114.85;11.85;;;;;;;;;;2070321;28;20502;-77
2021/12/13 02:33:38;;;;;;;93.35;9.77;;;;;;;;;;2073107;28;20510;-75
2021/12/13 02:34:58;;;;;;;89.85;12.48;;;;;;;;;;2065602;28;20026;-75
2021/12/13 02:36:29;;;;;;;79.78;11.05;;;;;;;;;;2068626;28;20549;-76
2021/12/13 02:37:49;;;;;;;120.18;12.30;;;;;;;;;;2064873;28;20117;-77
2021/12/13 02:39:11;;;;;;;77.05;10.88;;;;;;;;;;2061738;28;20109;-76
2021/12/13 02:40:30;;;;;;;112.63;12.55;;;;;;;;;;2065677;28;20093;-76
2021/12/13 02:41:49;;;;;;;109.00;12.35;;;;;;;;;;2065116;28;20042;-76
2021/12/13 02:43:09;;;;;;;102.45;12.48;;;;;;;;;;2065347;28;20026;-76
2021/12/13 02:44:31;;;;;;;58.50;10.52;;;;;;;;;;2065830;28;20402;-76
2021/12/13 02:45:52;;;;;;;157.00;16.48;;;;;;;;;;2065650;28;20035;-76
2021/12/13 02:47:21;;;;;;;119.57;13.48;;;;;;;;;;2072476;28;20410;-76
2021/12/13 02:48:43;;;;;;;238.68;18.45;;;;;;;;;;2065133;28;20030;-76
2021/12/13 02:50:04;;;;;;;203.20;19.73;;;;;;;;;;2070599;28;20465;-76
2021/12/13 02:51:26;;;;;;;166.70;15.93;;;;;;;;;;2063960;28;20494;-76
2021/12/13 02:52:45;;;;;;;139.90;13.07;;;;;;;;;;2064395;28;20034;-76
2021/12/13 02:54:04;;;;;;;129.88;12.68;;;;;;;;;;2065327;28;20035;-76
2021/12/13 02:55:25;;;;;;;51.25;9.93;;;;;;;;;;2069534;28;20054;-76
2021/12/13 02:56:50;;;;;;;148.32;14.50;;;;;;;;;;2073800;28;20030;-76
2021/12/13 02:58:11;;;;;;;114.88;11.45;;;;;;;;;;2065550;28;20034;-75
2021/12/13 02:59:31;;;;;;;86.88;12.43;;;;;;;;;;2069776;28;20026;-76
2021/12/13 03:00:54;;;;;;;71.88;10.63;;;;;;;;;;2066765;28;20026;-77
2021/12/13 03:02:30;;;;;;;124.50;12.73;;;;;;;;;;2065392;28;20556;-76
2021/12/13 03:03:51;;;;;;;97.28;11.07;;;;;;;;;;2073452;28;20026;-76
2021/12/13 03:05:14;;;;;;;79.50;10.90;;;;;;;;;;2065110;28;20510;-76
2021/12/13 03:06:35;;;;;;;153.05;14.07;;;;;;;;;;2062205;28;20046;-76
2021/12/13 03:07:56;;;;;;;93.07;13.02;;;;;;;;;;2061535;28;20455;-76
2021/12/13 03:09:17;;;;;;;105.05;12.60;;;;;;;;;;2062421;28;20034;-76
2021/12/13 03:10:39;;;;;;;101.25;12.32;;;;;;;;;;2061842;28;20102;-75
2021/12/13 03:11:59;;;;;;;89.75;10.88;;;;;;;;;;2069251;28;20439;-76
2021/12/13 03:13:19;;;;;;;91.70;12.63;;;;;;;;;;2065035;28;20030;-76
2021/12/13 03:14:42;;;;;;;51.85;9.77;;;;;;;;;;2061614;28;20039;-76
2021/12/13 03:16:04;;;;;;;209.23;16.25;;;;;;;;;;2064695;28;20082;-76
2021/12/13 03:17:32;;;;;;;366.27;27.10;;;;;;;;;;2071761;28;20034;-76
2021/12/13 03:19:10;;;;;;;86.63;11.00;;;;;;;;;;2072799;28;20034;-76
2021/12/13 03:20:37;;;;;;;90.20;10.73;;;;;;;;;;2064624;28;20039;-76
2021/12/13 03:21:56;;;;;;;72.07;10.48;;;;;;;;;;2064520;28;20022;-76
2021/12/13 03:23:21;;;;;;;75.72;10.95;;;;;;;;;;2064999;28;20038;-77
2021/12/13 03:24:58;;;;;;;46.92;8.85;;;;;;;;;;2065052;28;20394;-75
2021/12/13 03:26:21;;;;;;;55.45;9.82;;;;;;;;;;2063543;28;20038;-76
2021/12/13 03:28:01;;;;;;;64.50;10.20;;;;;;;;;;2072492;28;20232;-77
2021/12/13 03:29:42;;;;;;;73.13;10.38;;;;;;;;;;2064871;28;20027;-76
2021/12/13 03:31:07;;;;;;;53.33;10.48;;;;;;;;;;2065714;28;20030;-76
2021/12/13 03:32:55;;;;;;;38.55;9.35;;;;;;;;;;2066063;28;20030;-76
2021/12/13 03:34:16;;;;;;;58.33;9.50;;;;;;;;;;2067017;28;20030;-76
2021/12/13 03:35:38;;;;;;;56.25;10.65;;;;;;;;;;2073090;28;20014;-76
2021/12/13 03:36:59;;;;;;;51.10;10.40;;;;;;;;;;2071112;28;20026;-75
2021/12/13 03:38:22;;;;;;;45.80;9.35;;;;;;;;;;2067785;28;20030;-76
2021/12/13 03:39:46;;;;;;;62.17;10.02;;;;;;;;;;2064732;28;20062;-76
2021/12/13 03:41:08;;;;;;;60.20;10.13;;;;;;;;;;2069459;28;20065;-77
2021/12/13 03:42:30;;;;;;;59.08;10.20;;;;;;;;;;2071891;28;20030;-76
2021/12/13 03:43:51;;;;;;;63.13;10.80;;;;;;;;;;2067991;28;20038;-76
2021/12/13 03:45:23;;;;;;;48.45;10.00;;;;;;;;;;2065586;28;20052;-76
2021/12/13 03:46:44;;;;;;;86.15;12.02;;;;;;;;;;2073204;28;20042;-76
2021/12/13 03:48:06;;;;;;;58.88;11.35;;;;;;;;;;2067141;28;20030;-76
2021/12/13 03:49:25;;;;;;;80.47;11.70;;;;;;;;;;2065626;28;20031;-76
2021/12/13 03:50:46;;;;;;;33.40;9.10;;;;;;;;;;2065560;28;20034;-77
2021/12/13 03:52:06;;;;;;;28.42;8.82;;;;;;;;;;2064740;28;20479;-76
2021/12/13 03:53:30;;;;;;;46.25;10.25;;;;;;;;;;2071329;28;20046;-78
2021/12/13 03:54:50;;;;;;;30.08;9.38;;;;;;;;;;2067760;28;20498;-76
2021/12/13 03:56:14;;;;;;;27.05;8.73;;;;;;;;;;2065601;28;20065;-75
2021/12/13 03:57:36;;;;;;;25.27;9.85;;;;;;;;;;2069497;28;20030;-75
2021/12/13 03:58:57;;;;;;;32.72;9.38;;;;;;;;;;2066110;28;20125;-76
2021/12/13 04:00:18;;;;;;;24.10;8.68;;;;;;;;;;2072535;28;20061;-76
2021/12/13 04:01:41;;;;;;;25.33;8.57;;;;;;;;;;2064974;28;20030;-76
2021/12/13 04:03:01;;;;;;;25.77;9.00;;;;;;;;;;2062192;28;20129;-75
2021/12/13 04:04:22;;;;;;;41.55;10.30;;;;;;;;;;2064662;28;20045;-76
2021/12/13 04:05:41;;;;;;;30.00;9.23;;;;;;;;;;2072558;28;20164;-76
2021/12/13 04:07:04;;;;;;;35.53;9.57;;;;;;;;;;2066362;28;20058;-76
2021/12/13 04:08:24;;;;;;;26.35;8.48;;;;;;;;;;2065417;28;20034;-75
2021/12/13 04:09:44;;;;;;;21.48;9.65;;;;;;;;;;2064173;28;20023;-76
2021/12/13 04:11:06;;;;;;;24.35;9.10;;;;;;;;;;2069361;28;20477;-76
2021/12/13 04:12:31;;;;;;;24.77;9.43;;;;;;;;;;2067379;28;20030;-76
2021/12/13 04:13:54;;;;;;;21.48;8.90;;;;;;;;;;2064530;28;20479;-75
2021/12/13 04:15:20;;;;;;;20.98;9.10;;;;;;;;;;2069720;28;20026;-76
2021/12/13 04:17:04;;;;;;;17.20;9.27;;;;;;;;;;2067145;28;20046;-76
2021/12/13 04:20:23;;;;;;;16.15;8.50;;;;;;;;;;2072110;28;20042;-75
2021/12/13 04:21:47;;;;;;;17.65;8.77;;;;;;;;;;2064737;28;20550;-75
2021/12/13 04:23:12;;;;;;;17.48;8.48;;;;;;;;;;2064411;28;20042;-76
2021/12/13 04:24:31;;;;;;;19.38;9.00;;;;;;;;;;2072776;28;20030;-75
2021/12/13 04:25:50;;;;;;;16.20;8.90;;;;;;;;;;2072065;28;20418;-76
2021/12/13 04:27:16;;;;;;;18.58;8.68;;;;;;;;;;2066353;28;20026;-76
2021/12/13 04:28:34;;;;;;;16.95;10.00;;;;;;;;;;2072912;28;20038;-76
2021/12/13 04:29:56;;;;;;;17.92;9.65;;;;;;;;;;2064102;28;20026;-76
2021/12/13 04:31:18;;;;;;;19.40;9.80;;;;;;;;;;2069867;28;20034;-76
2021/12/13 04:32:41;;;;;;;18.48;9.13;;;;;;;;;;2070517;28;20054;-76
2021/12/13 04:34:05;;;;;;;15.40;9.20;;;;;;;;;;2071885;28;20033;-76
2021/12/13 04:35:24;;;;;;;16.25;8.77;;;;;;;;;;2067097;28;20027;-76
2021/12/13 04:36:45;;;;;;;13.63;8.35;;;;;;;;;;2065076;28;20030;-76
2021/12/13 04:38:06;;;;;;;19.67;9.73;;;;;;;;;;2062287;28;20042;-75
2021/12/13 04:39:28;;;;;;;15.68;9.10;;;;;;;;;;2063979;28;20070;-76
2021/12/13 04:40:50;;;;;;;16.98;9.18;;;;;;;;;;2071483;28;20017;-76
2021/12/13 04:42:11;;;;;;;15.95;9.13;;;;;;;;;;2067689;28;20102;-76
2021/12/13 04:43:34;;;;;;;17.50;8.65;;;;;;;;;;2063876;28;20105;-75
2021/12/13 04:44:58;;;;;;;17.65;8.88;;;;;;;;;;2072203;28;20514;-75
2021/12/13 04:46:18;;;;;;;19.17;9.38;;;;;;;;;;2071738;28;20034;-76
2021/12/13 04:47:42;;;;;;;19.08;9.63;;;;;;;;;;2063144;28;20061;-75
2021/12/13 04:49:05;;;;;;;16.42;9.00;;;;;;;;;;2060427;28;20531;-75
2021/12/13 04:50:26;;;;;;;15.27;8.00;;;;;;;;;;2063747;28;20034;-75
2021/12/13 04:51:51;;;;;;;16.10;8.40;;;;;;;;;;2063446;28;20030;-75
2021/12/13 04:53:16;;;;;;;17.17;8.82;;;;;;;;;;2072506;28;20025;-75
2021/12/13 04:54:36;;;;;;;17.63;8.95;;;;;;;;;;2064577;28;20034;-75
2021/12/13 04:55:57;;;;;;;14.50;8.40;;;;;;;;;;2064004;28;20503;-75
2021/12/13 04:57:17;;;;;;;16.60;8.68;;;;;;;;;;2068117;28;20045;-76
2021/12/13 04:58:37;;;;;;;14.43;8.88;;;;;;;;;;2064027;28;20058;-75
2021/12/13 05:00:00;;;;;;;12.43;8.00;;;;;;;;;;2059697;28;20039;-76
2021/12/13 05:01:20;;;;;;;13.55;8.38;;;;;;;;;;2068123;28;20647;-76
2021/12/13 05:02:41;;;;;;;15.25;8.50;;;;;;;;;;2067822;28;20474;-76
2021/12/13 05:04:02;;;;;;;13.85;8.20;;;;;;;;;;2064118;28;20442;-75
2021/12/13 05:05:21;;;;;;;11.93;8.75;;;;;;;;;;2063291;28;20054;-76
2021/12/13 05:06:41;;;;;;;13.20;8.85;;;;;;;;;;2064094;28;20031;-75
2021/12/13 05:08:00;;;;;;;9.93;7.80;;;;;;;;;;2060794;28;20406;-75
2021/12/13 05:09:21;;;;;;;12.77;9.15;;;;;;;;;;2060664;28;20026;-75
2021/12/13 05:10:43;;;;;;;14.95;9.52;;;;;;;;;;2063225;28;20030;-75
2021/12/13 05:12:02;;;;;;;15.00;9.73;;;;;;;;;;2064431;28;20518;-76
2021/12/13 05:13:24;;;;;;;14.38;9.68;;;;;;;;;;2064506;28;20042;-75
2021/12/13 05:14:46;;;;;;;15.77;9.70;;;;;;;;;;2064878;28;20398;-75
2021/12/13 05:16:09;;;;;;;15.50;10.02;;;;;;;;;;2062198;28;20050;-76
2021/12/13 05:17:38;;;;;;;16.17;10.50;;;;;;;;;;2068425;28;20108;-76
2021/12/13 05:18:57;;;;;;;15.18;9.93;;;;;;;;;;2065431;28;20046;-75
2021/12/13 05:20:26;;;;;;;17.42;10.82;;;;;;;;;;2064493;28;20030;-76
2021/12/13 05:21:47;;;;;;;15.10;9.68;;;;;;;;;;2063526;28;20068;-75
2021/12/13 05:23:08;;;;;;;15.18;9.80;;;;;;;;;;2063392;28;20042;-76
2021/12/13 05:24:29;;;;;;;15.48;9.85;;;;;;;;;;2064256;28;20038;-75
2021/12/13 05:25:54;;;;;;;15.48;10.63;;;;;;;;;;2064546;28;20042;-75
2021/12/13 05:27:14;;;;;;;15.40;10.05;;;;;;;;;;2068084;28;20018;-76
2021/12/13 05:28:44;;;;;;;18.00;10.13;;;;;;;;;;2066399;28;20423;-75
2021/12/13 05:30:09;;;;;;;15.35;9.93;;;;;;;;;;2072181;28;20034;-75
2021/12/13 05:31:29;;;;;;;16.35;10.32;;;;;;;;;;2072012;28;20030;-75
2021/12/13 05:32:50;;;;;;;17.52;10.82;;;;;;;;;;2065312;28;20046;-75
2021/12/13 05:34:09;;;;;;;18.77;11.40;;;;;;;;;;2070465;28;20410;-76
2021/12/13 05:35:36;;;;;;;15.27;10.32;;;;;;;;;;2067460;28;20034;-75
2021/12/13 05:36:57;;;;;;;17.42;10.40;;;;;;;;;;2064280;28;20465;-75
2021/12/13 05:38:22;;;;;;;15.75;10.05;;;;;;;;;;2058862;28;20022;-76
2021/12/13 05:39:54;;;;;;;17.77;11.00;;;;;;;;;;2063355;28;21437;-76
2021/12/13 05:41:21;;;;;;;18.42;10.50;;;;;;;;;;2062432;28;20502;-75
2021/12/13 05:42:42;;;;;;;16.15;10.07;;;;;;;;;;2067867;28;20034;-76
2021/12/13 05:44:03;;;;;;;17.65;10.82;;;;;;;;;;2067819;28;20041;-76
2021/12/13 05:45:39;;;;;;;17.00;11.35;;;;;;;;;;2066090;28;20019;-75
2021/12/13 05:46:59;;;;;;;15.90;10.48;;;;;;;;;;2071169;28;20029;-76
2021/12/13 05:48:23;;;;;;;16.73;10.45;;;;;;;;;;2063109;28;20061;-75
2021/12/13 05:49:43;;;;;;;18.63;11.38;;;;;;;;;;2062236;28;20031;-76
2021/12/13 05:51:05;;;;;;;15.75;10.70;;;;;;;;;;2071037;28;20038;-74
2021/12/13 05:52:30;;;;;;;16.52;11.05;;;;;;;;;;2070999;28;20029;-75
2021/12/13 05:53:57;;;;;;;19.63;10.90;;;;;;;;;;2065229;28;20113;-76
2021/12/13 05:55:17;;;;;;;18.27;10.63;;;;;;;;;;2063162;28;20019;-75
2021/12/13 05:56:46;;;;;;;20.38;11.15;;;;;;;;;;2073783;28;20033;-76
2021/12/13 05:58:06;;;;;;;18.92;11.10;;;;;;;;;;2071865;28;20034;-76
2021/12/13 05:59:27;;;;;;;17.77;10.90;;;;;;;;;;2060977;28;20034;-76
2021/12/13 06:00:49;;;;;;;16.90;10.25;;;;;;;;;;2062552;28;20034;-75
2021/12/13 06:02:11;;;;;;;16.00;10.98;;;;;;;;;;2063801;28;20042;-75
2021/12/13 06:03:33;;;;;;;18.02;11.30;;;;;;;;;;2070089;28;20030;-77
2021/12/13 06:05:01;;;;;;;16.38;10.75;;;;;;;;;;2072135;28;20497;-78
2021/12/13 06:06:22;;;;;;;14.45;10.90;;;;;;;;;;2063624;28;20038;-77
2021/12/13 06:07:42;;;;;;;17.75;10.70;;;;;;;;;;2062918;28;20157;-78
2021/12/13 06:09:01;;;;;;;14.80;10.52;;;;;;;;;;2062147;28;20026;-77
2021/12/13 06:10:21;;;;;;;19.90;11.77;;;;;;;;;;2063085;28;20019;-75
2021/12/13 06:11:46;;;;;;;17.65;10.95;;;;;;;;;;2059445;28;20038;-75
2021/12/13 06:13:07;;;;;;;16.08;10.50;;;;;;;;;;2062818;28;20034;-77
2021/12/13 06:14:27;;;;;;;17.38;11.30;;;;;;;;;;2063077;28;20030;-75
2021/12/13 06:15:45;;;;;;;17.40;11.32;;;;;;;;;;2071086;28;20042;-76
2021/12/13 06:17:07;;;;;;;17.60;10.02;;;;;;;;;;2062764;28;20039;-75
2021/12/13 06:18:30;;;;;;;20.73;11.07;;;;;;;;;;2063608;28;20062;-75
2021/12/13 06:19:54;;;;;;;15.93;10.48;;;;;;;;;;2069453;28;20034;-75
2021/12/13 06:21:22;;;;;;;16.38;10.63;;;;;;;;;;2065454;28;20498;-74
2021/12/13 06:22:42;;;;;;;19.55;10.93;;;;;;;;;;2071292;28;20034;-74
2021/12/13 06:24:01;;;;;;;18.02;11.02;;;;;;;;;;2067541;28;20042;-75
2021/12/13 06:25:23;;;;;;;16.10;11.20;;;;;;;;;;2061767;28;20030;-75
2021/12/13 06:26:42;;;;;;;16.90;11.15;;;;;;;;;;2068294;28;20045;-76
2021/12/13 06:28:01;;;;;;;17.73;11.63;;;;;;;;;;2071102;28;20119;-75
2021/12/13 06:29:22;;;;;;;15.68;10.45;;;;;;;;;;2062435;28;20026;-75
2021/12/13 06:30:40;;;;;;;17.27;10.82;;;;;;;;;;2062926;28;20034;-75
2021/12/13 06:31:59;;;;;;;18.00;11.43;;;;;;;;;;2071866;28;20034;-75
2021/12/13 06:33:18;;;;;;;18.00;11.57;;;;;;;;;;2062498;28;20534;-75
2021/12/13 06:34:37;;;;;;;15.40;10.52;;;;;;;;;;2062556;28;20042;-75
2021/12/13 06:35:57;;;;;;;17.65;10.25;;;;;;;;;;2064219;28;20038;-76
2021/12/13 06:37:22;;;;;;;16.15;10.90;;;;;;;;;;2067123;28;20047;-74
2021/12/13 06:38:43;;;;;;;15.50;10.50;;;;;;;;;;2063900;28;20038;-76
2021/12/13 06:40:13;;;;;;;14.10;10.07;;;;;;;;;;2068748;28;20543;-76
2021/12/13 06:41:36;;;;;;;15.35;10.05;;;;;;;;;;2066541;28;20049;-77
2021/12/13 06:42:55;;;;;;;15.07;11.05;;;;;;;;;;2061358;28;20410;-76
2021/12/13 06:44:22;;;;;;;13.98;10.35;;;;;;;;;;2063312;28;20034;-76
2021/12/13 06:45:42;;;;;;;15.23;10.38;;;;;;;;;;2070908;28;20637;-77
2021/12/13 06:47:07;;;;;;;14.50;10.10;;;;;;;;;;2066874;28;20026;-75
2021/12/13 06:48:33;;;;;;;16.27;11.18;;;;;;;;;;2063958;28;20097;-76
2021/12/13 06:49:54;;;;;;;14.15;10.52;;;;;;;;;;2062692;28;20214;-76
2021/12/13 06:51:15;;;;;;;13.57;10.18;;;;;;;;;;2063657;28;20030;-75
2021/12/13 06:52:36;;;;;;;17.38;11.38;;;;;;;;;;2070746;28;20037;-75
2021/12/13 06:54:04;;;;;;;14.57;10.35;;;;;;;;;;2063368;28;20027;-75
2021/12/13 06:55:23;;;;;;;14.98;10.73;;;;;;;;;;2061712;28;20465;-76
2021/12/13 06:56:45;;;;;;;14.13;9.85;;;;;;;;;;2061969;28;20035;-77
2021/12/13 06:58:11;;;;;;;13.85;10.68;;;;;;;;;;2066830;28;20038;-76
2021/12/13 06:59:31;;;;;;;13.15;10.38;;;;;;;;;;2062927;28;20035;-76
2021/12/13 07:00:52;;;;;;;12.07;8.98;;;;;;;;;;2065948;28;20038;-76
2021/12/13 07:02:14;;;;;;;12.70;10.38;;;;;;;;;;2062190;28;20034;-76
2021/12/13 07:03:34;;;;;;;13.20;10.00;;;;;;;;;;2069501;28;20037;-76
2021/12/13 07:04:53;;;;;;;12.65;9.50;;;;;;;;;;2065940;28;20030;-75
2021/12/13 07:06:17;;;;;;;13.48;10.25;;;;;;;;;;2064075;28;20443;-76
2021/12/13 07:07:38;;;;;;;14.05;10.77;;;;;;;;;;2064246;28;20042;-76
2021/12/13 07:09:26;;;;;;;13.25;10.25;;;;;;;;;;2068001;28;20018;-76
2021/12/13 07:10:57;;;;;;;16.30;10.65;;;;;;;;;;2059786;28;20035;-76
2021/12/13 07:12:17;;;;;;;12.32;10.10;;;;;;;;;;2064672;28;20038;-77
2021/12/13 07:13:39;;;;;;;13.20;10.25;;;;;;;;;;2064506;28;20034;-76
2021/12/13 07:14:59;;;;;;;12.88;9.82;;;;;;;;;;2072238;28;20038;-76
2021/12/13 07:16:22;;;;;;;15.52;11.02;;;;;;;;;;2072617;28;20136;-76
2021/12/13 07:17:41;;;;;;;11.65;7.80;;;;;;;;;;2071950;28;20025;-76
2021/12/13 07:19:07;;;;;;;13.63;10.38;;;;;;;;;;2063976;28;20134;-77
2021/12/13 07:20:34;;;;;;;13.80;11.02;;;;;;;;;;2061652;28;20469;-76
2021/12/13 07:21:59;;;;;;;12.90;10.02;;;;;;;;;;2065480;28;20521;-76
2021/12/13 07:23:18;;;;;;;14.82;11.27;;;;;;;;;;2064489;28;20023;-77
2021/12/13 07:24:46;;;;;;;14.85;10.90;;;;;;;;;;2065609;28;20034;-76
2021/12/13 07:26:05;;;;;;;12.68;9.90;;;;;;;;;;2064636;28;20034;-76
2021/12/13 07:27:29;;;;;;;13.07;10.40;;;;;;;;;;2065582;28;20030;-76
2021/12/13 07:28:50;;;;;;;14.13;10.27;;;;;;;;;;2064933;28;20382;-77
2021/12/13 07:30:13;;;;;;;13.93;10.77;;;;;;;;;;2065342;28;20027;-76
2021/12/13 07:31:32;;;;;;;14.95;10.73;;;;;;;;;;2071627;28;20042;-75
2021/12/13 07:32:57;;;;;;;15.43;10.57;;;;;;;;;;2068107;28;20030;-76
2021/12/13 07:34:18;;;;;;;12.57;10.32;;;;;;;;;;2072127;28;20029;-76
2021/12/13 07:35:42;;;;;;;13.18;10.10;;;;;;;;;;2071632;28;20503;-75
2021/12/13 07:37:02;;;;;;;15.60;10.48;;;;;;;;;;2064317;28;20030;-77
2021/12/13 07:38:22;;;;;;;12.73;10.02;;;;;;;;;;2064338;28;20030;-75
2021/12/13 07:39:43;;;;;;;16.67;11.13;;;;;;;;;;2064292;28;20038;-76
2021/12/13 07:41:05;;;;;;;12.77;10.52;;;;;;;;;;2062844;28;20035;-75
2021/12/13 07:42:24;;;;;;;14.57;11.02;;;;;;;;;;2068825;28;20097;-76
2021/12/13 07:43:44;;;;;;;14.48;10.93;;;;;;;;;;2068675;28;20216;-76
2021/12/13 07:45:20;;;;;;;13.70;10.57;;;;;;;;;;2065194;28;20030;-77
2021/12/13 07:46:39;;;;;;;15.40;10.98;;;;;;;;;;2062382;28;20042;-76
2021/12/13 07:48:03;;;;;;;14.18;10.73;;;;;;;;;;2060596;28;20068;-76
2021/12/13 07:49:28;;;;;;;13.48;10.50;;;;;;;;;;2070121;28;20034;-78
2021/12/13 07:50:56;;;;;;;14.52;10.68;;;;;;;;;;2072501;28;20030;-77
2021/12/13 07:52:41;;;;;;;15.48;10.25;;;;;;;;;;2062953;28;20098;-77
2021/12/13 07:54:07;;;;;;;12.85;9.95;;;;;;;;;;2064618;28;20387;-75
2021/12/13 07:55:29;;;;;;;14.20;10.30;;;;;;;;;;2065177;28;20030;-77
2021/12/13 07:56:52;;;;;;;15.80;9.90;;;;;;;;;;2065378;28;20034;-78
2021/12/13 07:58:13;;;;;;;13.38;10.18;;;;;;;;;;2064498;28;20030;-77
2021/12/13 07:59:36;;;;;;;14.15;10.50;;;;;;;;;;2059033;28;20062;-77
2021/12/13 08:01:05;;;;;;;15.63;10.57;;;;;;;;;;2063212;28;20022;-77
2021/12/13 08:02:33;;;;;;;17.27;11.02;;;;;;;;;;2063606;28;20034;-77
2021/12/13 08:03:57;;;;;;;18.10;11.68;;;;;;;;;;2062890;28;20042;-78
2021/12/13 08:05:21;;;;;;;12.80;9.80;;;;;;;;;;2064643;28;20034;-77
2021/12/13 08:06:45;;;;;;;15.45;11.10;;;;;;;;;;2070998;28;20038;-79
2021/12/13 08:08:05;;;;;;;16.77;11.00;;;;;;;;;;2064360;28;20018;-78
2021/12/13 08:09:27;;;;;;;14.02;9.75;;;;;;;;;;2067437;28;20034;-78
2021/12/13 08:10:46;;;;;;;14.13;10.50;;;;;;;;;;2066377;28;20569;-78
2021/12/13 08:12:28;;;;;;;15.30;10.32;;;;;;;;;;2064438;28;20125;-78